Time;durP1;ratioP1;P1;durP2;ratioP2;P2;SDS_P1;SDS_P2;PMS_P1;PMS_P2;Temp;Humidity;BMP_temperature;BMP_pressure;BME280_temperature;BME280_humidity;BME280_pressure;Samples;Min_cycle;Max_cycle;Signal;HPM_P1;HPM_P2
2021/05/11 18:54:36;;;;;;;3.53;3.15;;;;;;;20.52;52.39;100080.38;5016956;27;1374811;-67
2021/05/11 18:57:02;;;;;;;2.95;2.78;;;;;;;20.59;52.25;100080.84;5035644;28;20467;-68
2021/05/11 18:59:28;;;;;;;4.82;2.92;;;;;;;20.47;52.27;100077.97;5042327;28;20043;-67
2021/05/11 19:01:53;;;;;;;2.47;2.38;;;;;;;20.72;51.51;100088.97;5046357;28;20037;-67
2021/05/11 19:04:20;;;;;;;3.85;2.90;;;;;;;20.59;52.21;100084.34;5036806;28;20037;-71
2021/05/11 19:07:43;;;;;;;4.05;2.80;;;;;;;20.76;51.68;100085.19;4924944;22;21000;-82
2021/05/11 19:10:11;;;;;;;4.13;2.45;;;;;;;20.58;54.52;100087.09;4968824;28;129814;-83
2021/05/11 19:13:28;;;;;;;2.60;2.40;;;;;;;21.68;50.16;100086.59;5031191;27;20383;-71
2021/05/11 19:15:53;;;;;;;2.53;2.33;;;;;;;22.07;48.68;100092.06;4996649;28;20452;-71
2021/05/11 19:32:24;;;;;;;3.30;2.53;;;;;;;22.52;46.95;100095.28;5029965;27;20416;-72
2021/05/11 19:34:50;;;;;;;4.57;2.83;;;;;;;23.02;45.51;100097.25;5035820;28;20521;-73
2021/05/11 19:37:16;;;;;;;5.70;3.65;;;;;;;22.90;45.81;100093.63;5027553;28;20078;-74
2021/05/11 19:39:42;;;;;;;3.03;2.72;;;;;;;22.87;45.80;100094.69;5030645;28;20979;-77
2021/05/11 19:42:08;;;;;;;2.97;2.20;;;;;;;22.83;45.78;100089.66;5026615;28;20045;-73
2021/05/11 19:44:34;;;;;;;3.88;3.35;;;;;;;22.52;46.79;100100.63;5033353;28;20028;-73
2021/05/11 19:47:01;;;;;;;3.03;2.63;;;;;;;22.46;46.64;100101.03;5034983;28;20203;-73
2021/05/11 19:49:26;;;;;;;2.60;2.40;;;;;;;22.22;47.39;100107.03;5040136;28;20047;-75
2021/05/11 19:51:52;;;;;;;2.78;2.45;;;;;;;22.01;47.85;100111.97;5030415;28;20918;-76
2021/05/11 19:54:24;;;;;;;4.25;2.80;;;;;;;22.07;47.63;100106.25;4340417;28;10000641;-76
2021/05/11 19:56:49;;;;;;;7.30;2.50;;;;;;;22.05;47.68;100116.16;5011267;28;20037;-75
2021/05/11 19:59:16;;;;;;;4.00;3.40;;;;;;;22.01;47.70;100114.66;5029928;28;20064;-76
2021/05/11 20:01:42;;;;;;;2.58;2.38;;;;;;;21.93;47.87;100101.81;5024471;28;20041;-76
2021/05/11 20:04:07;;;;;;;5.53;3.33;;;;;;;21.87;48.08;100106.69;5033441;28;20858;-75
2021/05/11 20:06:33;;;;;;;2.90;2.70;;;;;;;21.83;48.09;100119.34;5031766;28;20162;-75
2021/05/11 20:08:59;;;;;;;3.35;2.92;;;;;;;21.78;48.30;100114.34;5021588;28;20557;-75
2021/05/11 20:11:25;;;;;;;3.33;2.65;;;;;;;21.74;48.53;100118.13;5029654;28;20440;-75
2021/05/11 20:13:55;;;;;;;3.13;2.50;;;;;;;21.76;48.54;100121.56;5029642;28;20037;-75
2021/05/11 20:16:23;;;;;;;2.47;2.28;;;;;;;21.78;48.33;100117.00;5006383;28;20565;-75
2021/05/11 20:18:49;;;;;;;2.53;2.33;;;;;;;21.76;48.27;100118.91;5028405;28;20495;-75
2021/05/11 20:21:15;;;;;;;3.13;2.55;;;;;;;21.81;47.97;100118.59;5024478;28;20063;-75
2021/05/11 20:23:40;;;;;;;3.97;2.15;;;;;;;21.74;48.28;100117.28;5028993;28;20044;-76
2021/05/11 20:26:06;;;;;;;3.80;2.60;;;;;;;21.83;48.06;100129.16;5031998;28;20325;-75
2021/05/11 20:28:31;;;;;;;6.18;2.47;;;;;;;21.79;48.05;100124.03;5022620;28;20106;-75
2021/05/11 20:30:57;;;;;;;3.58;2.58;;;;;;;21.84;47.81;100121.06;5039560;28;20074;-75
2021/05/11 20:33:24;;;;;;;5.05;2.67;;;;;;;21.78;47.92;100124.13;5006987;28;20136;-75
2021/05/11 20:35:54;;;;;;;3.35;3.00;;;;;;;21.70;48.42;100134.44;5026584;28;23196;-75
2021/05/11 20:38:20;;;;;;;2.65;2.28;;;;;;;21.63;48.57;100129.47;5028078;28;20075;-76
2021/05/11 20:40:56;;;;;;;3.60;2.35;;;;;;;21.70;48.39;100132.59;5021450;28;20057;-76
2021/05/11 20:43:39;;;;;;;4.50;2.30;;;;;;;21.77;48.01;100133.94;5028168;28;20056;-73
2021/05/11 20:46:17;;;;;;;2.70;2.50;;;;;;;21.75;48.27;100140.31;5014179;28;20052;-75
2021/05/11 20:48:43;;;;;;;3.08;2.33;;;;;;;21.74;47.95;100141.25;5002235;28;20053;-73
2021/05/11 20:51:09;;;;;;;3.00;2.83;;;;;;;21.75;47.90;100141.16;4661123;28;9999916;-72
2021/05/11 20:53:34;;;;;;;3.28;2.95;;;;;;;21.75;48.02;100138.50;5006616;28;20126;-73
2021/05/11 20:56:00;;;;;;;3.67;2.88;;;;;;;21.71;48.22;100144.13;5010948;28;20128;-73
2021/05/11 20:58:25;;;;;;;3.58;2.30;;;;;;;21.64;48.13;100144.53;5011981;28;20056;-72
2021/05/11 21:00:51;;;;;;;2.67;2.45;;;;;;;21.64;48.41;100146.31;5003691;28;20071;-72
2021/05/11 21:03:17;;;;;;;3.35;2.70;;;;;;;21.59;48.34;100141.28;5010320;28;20509;-72
2021/05/11 21:05:42;;;;;;;2.50;2.40;;;;;;;21.66;48.12;100143.56;5020113;28;22314;-73
2021/05/11 21:08:08;;;;;;;3.50;2.63;;;;;;;21.62;48.08;100138.41;5024571;28;20494;-73
2021/05/11 21:10:33;;;;;;;2.60;2.40;;;;;;;21.57;48.25;100148.50;5011895;28;20103;-73
2021/05/11 21:13:00;;;;;;;5.15;2.47;;;;;;;21.64;48.07;100146.31;5004152;28;20071;-73
2021/05/11 21:15:26;;;;;;;4.55;2.60;;;;;;;21.67;48.02;100146.13;5012693;28;20041;-74
2021/05/11 21:17:52;;;;;;;2.80;2.38;;;;;;;21.62;48.04;100156.22;5027376;28;20045;-74
2021/05/11 21:20:18;;;;;;;4.28;2.88;;;;;;;21.60;48.02;100140.34;4999137;28;20581;-73
2021/05/11 21:22:44;;;;;;;3.67;2.80;;;;;;;21.52;48.40;100145.25;5023342;28;20449;-74
2021/05/11 21:25:11;;;;;;;3.22;2.20;;;;;;;21.52;48.04;100152.38;4988308;28;20041;-73
2021/05/11 21:27:38;;;;;;;3.13;2.83;;;;;;;21.68;47.61;100144.31;5002261;28;20176;-74
2021/05/11 21:30:07;;;;;;;3.88;3.05;;;;;;;21.66;47.58;100146.22;5027482;28;20135;-73
2021/05/11 21:32:35;;;;;;;2.35;2.25;;;;;;;21.59;47.65;100135.97;5020161;28;20045;-73
2021/05/11 21:35:01;;;;;;;2.53;2.30;;;;;;;21.57;47.67;100137.84;5016429;28;20057;-73
2021/05/11 21:37:28;;;;;;;2.53;2.35;;;;;;;21.53;47.72;100128.31;5001561;28;22421;-73
2021/05/11 21:39:53;;;;;;;3.67;2.50;;;;;;;21.57;47.67;100121.03;5003065;28;20049;-74
2021/05/11 21:42:19;;;;;;;2.88;2.60;;;;;;;21.50;47.57;100125.88;5013006;28;20035;-73
2021/05/11 21:44:44;;;;;;;2.45;2.33;;;;;;;21.50;47.52;100128.53;5000655;28;20272;-73
2021/05/11 21:47:11;;;;;;;3.63;2.70;;;;;;;21.58;47.53;100123.59;5013352;28;20053;-73
2021/05/11 21:49:37;;;;;;;2.85;2.65;;;;;;;21.48;47.69;100117.97;5028611;28;20156;-74
2021/05/11 21:52:03;;;;;;;4.07;2.75;;;;;;;21.38;48.04;100114.19;5006348;28;20777;-73
2021/05/11 21:54:28;;;;;;;3.03;2.53;;;;;;;21.46;47.71;100109.22;4998565;28;20609;-74
2021/05/11 21:56:54;;;;;;;2.92;2.72;;;;;;;21.52;47.52;100115.13;5006029;28;20063;-74
2021/05/11 21:59:19;;;;;;;3.55;2.78;;;;;;;21.53;47.67;100114.16;5017361;28;20035;-73
2021/05/11 22:01:45;;;;;;;4.07;3.08;;;;;;;21.48;48.04;100104.66;5030102;28;20414;-73
2021/05/11 22:04:14;;;;;;;4.05;2.80;;;;;;;21.45;47.60;100096.00;5020154;28;20041;-74
2021/05/11 22:06:41;;;;;;;5.75;3.35;;;;;;;21.45;47.63;100096.84;5000125;28;20037;-73
2021/05/11 22:09:06;;;;;;;4.00;3.40;;;;;;;21.45;47.58;100090.69;5016970;28;20049;-74
2021/05/11 22:11:37;;;;;;;3.58;3.20;;;;;;;21.51;47.29;100086.75;5008646;28;20045;-74
2021/05/11 22:14:08;;;;;;;4.13;3.70;;;;;;;21.52;47.27;100085.81;5015736;28;20916;-75
2021/05/11 22:16:35;;;;;;;4.32;3.45;;;;;;;21.40;47.66;100080.31;5022773;28;20573;-74
2021/05/11 22:19:06;;;;;;;4.28;3.33;;;;;;;21.39;47.53;100075.09;5000702;28;20049;-75
2021/05/11 22:21:33;;;;;;;3.85;3.55;;;;;;;21.40;47.44;100080.31;5012775;28;20658;-74
2021/05/11 22:23:58;;;;;;;4.70;2.90;;;;;;;21.45;47.42;100082.69;5006026;28;20045;-75
2021/05/11 22:26:24;;;;;;;4.28;3.58;;;;;;;21.36;47.39;100072.63;5014586;28;20056;-74
2021/05/11 22:28:49;;;;;;;3.30;3.10;;;;;;;21.41;47.41;100078.53;5012949;28;20641;-74
2021/05/11 22:31:15;;;;;;;3.83;3.47;;;;;;;21.43;47.33;100089.91;4975411;28;20444;-74
2021/05/11 22:33:41;;;;;;;4.53;4.25;;;;;;;21.42;47.44;100082.88;5010537;28;20496;-74
2021/05/11 22:36:07;;;;;;;4.65;4.22;;;;;;;21.34;47.85;100086.06;4988059;28;20048;-73
2021/05/11 22:38:33;;;;;;;4.97;3.95;;;;;;;21.34;47.71;100090.50;4995755;28;20052;-73
2021/05/11 22:41:00;;;;;;;4.00;3.63;;;;;;;21.41;47.76;100083.84;5015372;28;20102;-74
2021/05/11 22:43:31;;;;;;;5.30;4.38;;;;;;;21.40;47.68;100088.28;5002019;28;20076;-73
2021/05/11 22:45:57;;;;;;;5.70;4.25;;;;;;;21.44;47.61;100092.47;5029143;28;20048;-75
2021/05/11 22:48:22;;;;;;;4.85;4.30;;;;;;;21.41;47.51;100097.16;5002335;28;20128;-74
2021/05/11 22:50:50;;;;;;;4.57;4.15;;;;;;;21.34;47.73;100091.38;5008468;28;20045;-75
2021/05/11 22:53:22;;;;;;;4.43;4.13;;;;;;;21.37;47.68;100088.50;5008921;28;20505;-75
2021/05/11 22:55:51;;;;;;;5.00;4.60;;;;;;;21.36;47.78;100089.44;5018821;28;20529;-74
2021/05/11 22:58:17;;;;;;;4.95;4.25;;;;;;;21.38;47.64;100086.69;5028040;28;20049;-74
2021/05/11 23:00:44;;;;;;;6.32;5.80;;;;;;;21.37;47.70;100088.50;5009568;28;20048;-74
2021/05/11 23:03:10;;;;;;;8.75;4.85;;;;;;;21.32;48.06;100085.28;4991619;28;20098;-75
2021/05/11 23:05:36;;;;;;;6.38;5.88;;;;;;;21.25;48.19;100082.16;5013308;28;20116;-74
2021/05/11 23:08:02;;;;;;;6.13;5.25;;;;;;;21.32;48.13;100085.28;5009609;28;20042;-74
2021/05/11 23:10:28;;;;;;;5.93;5.53;;;;;;;21.29;47.96;100088.16;5008602;28;20048;-75
2021/05/11 23:12:55;;;;;;;6.43;5.93;;;;;;;21.24;48.10;100085.75;5011035;28;20138;-74
2021/05/11 23:15:26;;;;;;;7.28;6.68;;;;;;;21.33;47.71;100087.00;5001072;28;20849;-74
2021/05/11 23:17:53;;;;;;;7.05;5.93;;;;;;;21.29;47.88;100088.16;5010386;28;20040;-74
2021/05/11 23:20:23;;;;;;;7.78;6.97;;;;;;;21.29;47.92;100085.47;5012478;28;20049;-73
2021/05/11 23:22:50;;;;;;;7.63;6.78;;;;;;;21.29;47.61;100081.00;4983400;28;20442;-73
2021/05/11 23:25:16;;;;;;;6.55;6.15;;;;;;;21.31;47.99;100084.44;5026685;28;20045;-74
2021/05/11 23:27:42;;;;;;;7.20;6.63;;;;;;;21.30;47.77;100080.06;5006147;28;20094;-74
2021/05/11 23:30:08;;;;;;;7.18;6.28;;;;;;;21.27;47.69;100074.06;5007279;28;20053;-74
2021/05/11 23:32:35;;;;;;;7.47;6.78;;;;;;;21.20;48.00;100070.94;5013517;28;20501;-74
2021/05/11 23:35:01;;;;;;;7.75;7.00;;;;;;;21.09;48.25;100074.28;5004214;28;20049;-74
2021/05/11 23:37:26;;;;;;;7.40;6.70;;;;;;;21.09;48.15;100071.63;5014368;28;20127;-73
2021/05/11 23:39:52;;;;;;;7.22;6.60;;;;;;;21.20;47.84;100081.59;5003651;28;20041;-74
2021/05/11 23:42:17;;;;;;;6.88;6.30;;;;;;;21.24;47.85;100082.25;4999916;28;20043;-75
2021/05/11 23:44:43;;;;;;;7.30;6.47;;;;;;;21.18;47.70;100091.47;5000976;28;20471;-73
2021/05/11 23:47:08;;;;;;;7.55;6.70;;;;;;;21.14;47.70;100080.13;5004385;28;20056;-74
2021/05/11 23:49:34;;;;;;;8.63;7.72;;;;;;;21.14;47.78;100090.78;5015898;28;20045;-74
2021/05/11 23:52:00;;;;;;;7.25;6.65;;;;;;;21.22;47.71;100094.78;5011148;28;20080;-74
2021/05/11 23:54:25;;;;;;;7.68;6.97;;;;;;;21.20;47.88;100094.88;5007078;28;20057;-74
2021/05/11 23:56:51;;;;;;;8.10;7.40;;;;;;;21.21;47.84;100090.41;5012368;28;20479;-74
2021/05/11 23:59:17;;;;;;;7.72;7.03;;;;;;;21.29;47.60;100098.78;5000904;28;20095;-74
